Time;durP1;ratioP1;P1;durP2;ratioP2;P2;SDS_P1;SDS_P2;PMS_P1;PMS_P2;Temp;Humidity;BMP_temperature;BMP_pressure;BME280_temperature;BME280_humidity;BME280_pressure;Samples;Min_cycle;Max_cycle;Signal;HPM_P1;HPM_P2
2022/09/11 00:00:43;;;;;;;24.63;17.60;;;;;;;-145.50;100.00;65435.88;5054659;28;20048;-62
2022/09/11 00:03:09;;;;;;;27.77;17.83;;;;;;;-145.50;100.00;65435.88;5055097;28;20102;-62
2022/09/11 00:05:38;;;;;;;26.08;18.20;;;;;;;-145.50;100.00;65435.88;5061920;28;20110;-63
2022/09/11 00:08:05;;;;;;;;;;;;;;;-145.50;100.00;65435.88;5052930;28;20106;-62
2022/09/11 00:10:39;;;;;;;22.70;18.10;;;;;;;-145.50;100.00;65435.88;5056522;28;19982;-62
2022/09/11 00:13:10;;;;;;;31.15;20.88;;;;;;;-145.50;100.00;65435.88;5052391;28;20672;-62
2022/09/11 00:15:38;;;;;;;27.52;18.27;;;;;;;-145.50;100.00;65435.88;5061526;28;20464;-62
2022/09/11 00:18:06;;;;;;;26.80;17.50;;;;;;;-145.50;100.00;65435.88;5051810;28;20049;-62
2022/09/11 00:20:33;;;;;;;25.42;18.02;;;;;;;-145.50;100.00;65435.88;5065089;28;20056;-62
2022/09/11 00:23:03;;;;;;;25.48;18.45;;;;;;;-145.50;100.00;65435.88;5058520;28;20040;-62
2022/09/11 00:25:34;;;;;;;27.08;18.77;;;;;;;-145.50;100.00;65435.88;5060607;28;20056;-62
2022/09/11 00:28:01;;;;;;;24.15;18.00;;;;;;;-145.50;100.00;65435.88;5063496;28;20045;-62
2022/09/11 00:30:28;;;;;;;22.00;15.90;;;;;;;-145.50;100.00;65435.88;5060236;28;20056;-63
2022/09/11 00:32:55;;;;;;;24.88;16.30;;;;;;;-145.50;100.00;65435.88;5066366;28;20082;-62
2022/09/11 00:35:21;;;;;;;26.75;17.27;;;;;;;-145.50;100.00;65435.88;5058921;28;20056;-62
2022/09/11 00:37:47;;;;;;;20.23;15.57;;;;;;;-145.50;100.00;65435.88;5058655;28;20102;-63
2022/09/11 00:40:15;;;;;;;27.52;19.20;;;;;;;-145.50;100.00;65435.88;5055300;28;20044;-62
2022/09/11 00:42:42;;;;;;;27.00;18.27;;;;;;;-145.50;100.00;65435.88;5065685;28;20102;-62
2022/09/11 00:45:22;;;;;;;27.33;18.33;;;;;;;-145.50;100.00;65435.88;5060897;28;20072;-63
2022/09/11 00:47:50;;;;;;;24.63;17.27;;;;;;;-145.50;100.00;65435.88;5058600;28;20098;-63
2022/09/11 00:50:21;;;;;;;27.45;17.90;;;;;;;-145.50;100.00;65435.88;5060279;28;20053;-64
2022/09/11 00:52:55;;;;;;;24.08;16.33;;;;;;;-145.50;100.00;65435.88;5053702;28;20102;-62
2022/09/11 00:55:26;;;;;;;27.02;17.60;;;;;;;-145.50;100.00;65435.88;5062764;28;20049;-63
2022/09/11 00:58:00;;;;;;;24.42;18.27;;;;;;;-145.50;100.00;65435.88;5054419;28;20052;-63
2022/09/11 01:00:27;;;;;;;23.55;17.20;;;;;;;-145.50;100.00;65435.88;5058642;28;20048;-62
2022/09/11 01:02:54;;;;;;;25.90;18.30;;;;;;;-145.50;100.00;65435.88;5053782;28;20049;-63
2022/09/11 01:05:23;;;;;;;28.38;19.42;;;;;;;-145.50;100.00;65435.88;5053194;28;20489;-62
2022/09/11 01:07:53;;;;;;;26.77;19.25;;;;;;;-145.50;100.00;65435.88;5049694;28;20083;-62
2022/09/11 01:10:31;;;;;;;24.88;18.67;;;;;;;-145.50;100.00;65435.88;5057718;28;20550;-62
2022/09/11 01:13:06;;;;;;;27.63;18.25;;;;;;;-145.50;100.00;65435.88;5062886;28;20048;-63
2022/09/11 01:15:46;;;;;;;26.42;17.65;;;;;;;-145.50;100.00;65435.88;5058586;28;20574;-64
2022/09/11 01:18:28;;;;;;;24.13;17.95;;;;;;;-145.50;100.00;65435.88;5060320;28;20503;-62
2022/09/11 01:21:24;;;;;;;25.15;18.17;;;;;;;-145.50;100.00;65435.88;5049587;28;20787;-62
2022/09/11 01:24:11;;;;;;;23.60;16.27;;;;;;;-145.50;100.00;65435.88;5064978;28;20060;-62
2022/09/11 01:27:00;;;;;;;25.08;17.55;;;;;;;-145.50;100.00;65435.88;5054474;28;20523;-61
2022/09/11 01:29:33;;;;;;;27.77;18.60;;;;;;;-145.50;100.00;65435.88;5061903;28;20045;-62
2022/09/11 01:32:03;;;;;;;29.90;20.13;;;;;;;-145.50;100.00;65435.88;5051519;28;20036;-63
2022/09/11 01:34:41;;;;;;;30.23;21.52;;;;;;;-145.50;100.00;65435.88;5058614;28;20084;-62
2022/09/11 01:37:17;;;;;;;28.20;19.73;;;;;;;-145.50;100.00;65435.88;5057636;28;20060;-63
2022/09/11 01:39:52;;;;;;;29.90;19.85;;;;;;;-145.50;100.00;65435.88;5062648;28;20101;-63
2022/09/11 01:42:21;;;;;;;32.50;20.80;;;;;;;-145.50;100.00;65435.88;5063902;28;20453;-62
2022/09/11 01:44:54;;;;;;;26.20;18.70;;;;;;;-145.50;100.00;65435.88;5057385;28;20056;-62
2022/09/11 01:47:22;;;;;;;25.20;17.65;;;;;;;-145.50;100.00;65435.88;5058336;28;20130;-62
2022/09/11 01:49:54;;;;;;;28.23;18.15;;;;;;;-145.50;100.00;65435.88;5055264;28;20056;-62
2022/09/11 01:52:27;;;;;;;28.98;18.42;;;;;;;-145.50;100.00;65435.88;5064024;28;20340;-61
2022/09/11 01:55:01;;;;;;;24.15;17.75;;;;;;;-145.50;100.00;65435.88;5057345;28;20102;-63
2022/09/11 01:57:40;;;;;;;26.15;18.48;;;;;;;-145.50;100.00;65435.88;5057244;28;20049;-63
2022/09/11 02:00:08;;;;;;;;;;;;;;;-145.50;100.00;65435.88;5049416;28;20565;-62
2022/09/11 02:02:38;;;;;;;23.10;17.25;;;;;;;-145.50;100.00;65435.88;5056973;28;20370;-62
2022/09/11 02:05:11;;;;;;;23.05;16.92;;;;;;;-145.50;100.00;65435.88;5064413;28;20071;-62
2022/09/11 02:07:43;;;;;;;22.67;16.92;;;;;;;-145.50;100.00;65435.88;5056380;28;20114;-62
2022/09/11 02:10:22;;;;;;;25.88;16.40;;;;;;;-145.50;100.00;65435.88;5063609;28;20106;-63
2022/09/11 02:12:57;;;;;;;25.40;17.92;;;;;;;-145.50;100.00;65435.88;5051609;28;20102;-62
2022/09/11 02:15:30;;;;;;;22.98;16.15;;;;;;;-145.50;100.00;65435.88;5059298;28;20055;-63
2022/09/11 02:18:08;;;;;;;24.48;17.83;;;;;;;-145.50;100.00;65435.88;5056776;28;20053;-62
2022/09/11 02:20:35;;;;;;;24.85;18.10;;;;;;;-145.50;100.00;65435.88;5064332;28;20141;-62
2022/09/11 02:23:01;;;;;;;22.45;16.98;;;;;;;-145.50;100.00;65435.88;5055662;28;20056;-62
2022/09/11 02:25:28;;;;;;;24.65;17.58;;;;;;;-145.50;100.00;65435.88;5063929;28;20044;-64
2022/09/11 02:27:54;;;;;;;22.83;16.45;;;;;;;-145.50;100.00;65435.88;5057951;28;20071;-62
2022/09/11 02:30:21;;;;;;;26.23;16.88;;;;;;;-145.50;100.00;65435.88;5052790;28;20084;-62
2022/09/11 02:32:47;;;;;;;21.63;14.98;;;;;;;-145.50;100.00;65435.88;5063654;28;20049;-62
2022/09/11 02:35:15;;;;;;;22.63;15.90;;;;;;;-145.50;100.00;65435.88;5054804;28;20429;-62
2022/09/11 02:38:05;;;;;;;20.77;15.87;;;;;;;-145.50;100.00;65435.88;5063899;28;20121;-62
2022/09/11 02:40:56;;;;;;;22.58;15.32;;;;;;;-145.50;100.00;65435.88;5047523;28;20449;-62
2022/09/11 02:43:38;;;;;;;23.42;15.38;;;;;;;-145.50;100.00;65435.88;5057986;28;20481;-62
2022/09/11 02:46:07;;;;;;;25.13;16.42;;;;;;;-145.50;100.00;65435.88;5053966;28;20044;-63
2022/09/11 02:49:00;;;;;;;24.08;14.95;;;;;;;-145.50;100.00;65435.88;5063040;28;20048;-62
2022/09/11 02:52:01;;;;;;;22.88;16.52;;;;;;;-145.50;100.00;65435.88;5056072;28;20486;-63
2022/09/11 02:54:43;;;;;;;21.88;15.05;;;;;;;-145.50;100.00;65435.88;5058130;28;20102;-62
2022/09/11 02:57:27;;;;;;;22.10;15.77;;;;;;;-145.50;100.00;65435.88;5042752;28;20076;-62
2022/09/11 03:00:00;;;;;;;23.23;16.50;;;;;;;-145.50;100.00;65435.88;5061082;28;20133;-63
2022/09/11 03:02:32;;;;;;;21.55;14.48;;;;;;;-145.50;100.00;65435.88;5055577;28;20555;-63
2022/09/11 03:04:59;;;;;;;20.25;15.18;;;;;;;-145.50;100.00;65435.88;5059680;28;20102;-62
2022/09/11 03:07:25;;;;;;;20.45;14.63;;;;;;;-145.50;100.00;65435.88;5062443;28;20409;-61
2022/09/11 03:09:51;;;;;;;25.35;15.77;;;;;;;-145.50;100.00;65435.88;5050676;28;20060;-63
2022/09/11 03:12:18;;;;;;;24.88;15.48;;;;;;;-145.50;100.00;65435.88;5059041;28;20074;-62
2022/09/11 03:14:44;;;;;;;21.95;15.30;;;;;;;-145.50;100.00;65435.88;5057189;28;20049;-62
2022/09/11 03:17:11;;;;;;;22.48;15.98;;;;;;;-145.50;100.00;65435.88;5062307;28;20141;-62
2022/09/11 03:19:38;;;;;;;25.53;15.70;;;;;;;-145.50;100.00;65435.88;5059679;28;20056;-61
2022/09/11 03:22:04;;;;;;;21.65;15.73;;;;;;;-145.50;100.00;65435.88;5057736;28;20040;-60
2022/09/11 03:24:31;;;;;;;20.70;14.25;;;;;;;-145.50;100.00;65435.88;5055942;28;20048;-62
2022/09/11 03:26:57;;;;;;;21.88;14.23;;;;;;;-145.50;100.00;65435.88;5055953;28;20542;-63
2022/09/11 03:29:23;;;;;;;21.75;14.95;;;;;;;-145.50;100.00;65435.88;5062085;28;20666;-63
2022/09/11 03:31:50;;;;;;;20.13;14.48;;;;;;;-145.50;100.00;65435.88;5055480;28;20079;-62
2022/09/11 03:34:16;;;;;;;20.75;14.80;;;;;;;-145.50;100.00;65435.88;5061606;28;20048;-63
2022/09/11 03:36:43;;;;;;;22.05;14.57;;;;;;;-145.50;100.00;65435.88;5061334;28;20052;-62
2022/09/11 03:39:09;;;;;;;25.13;16.38;;;;;;;-145.50;100.00;65435.88;5052741;28;20455;-62
2022/09/11 03:41:36;;;;;;;24.83;16.58;;;;;;;-145.50;100.00;65435.88;5055304;28;20115;-63
2022/09/11 03:44:02;;;;;;;22.48;16.10;;;;;;;-145.50;100.00;65435.88;5049861;28;20055;-63
2022/09/11 03:46:31;;;;;;;25.25;14.63;;;;;;;-145.50;100.00;65435.88;5062923;28;20060;-63
2022/09/11 03:48:58;;;;;;;25.13;16.27;;;;;;;-145.50;100.00;65435.88;5055430;28;20041;-63
2022/09/11 03:51:27;;;;;;;20.90;14.45;;;;;;;-145.50;100.00;65435.88;5055034;28;20049;-63
2022/09/11 03:53:54;;;;;;;21.33;15.15;;;;;;;-145.50;100.00;65435.88;5057309;28;20056;-63
2022/09/11 03:56:20;;;;;;;23.95;15.35;;;;;;;-145.50;100.00;65435.88;5063991;28;20113;-62
2022/09/11 03:58:47;;;;;;;20.75;14.02;;;;;;;-145.50;100.00;65435.88;5059835;28;20053;-61
2022/09/11 04:01:14;;;;;;;19.55;14.32;;;;;;;-145.50;100.00;65435.88;5057686;28;20137;-61
2022/09/11 04:03:41;;;;;;;21.50;14.73;;;;;;;-145.50;100.00;65435.88;5051374;28;20048;-62
2022/09/11 04:06:09;;;;;;;19.58;14.38;;;;;;;-145.50;100.00;65435.88;5054590;28;20653;-62
2022/09/11 04:08:36;;;;;;;22.13;15.02;;;;;;;-145.50;100.00;65435.88;5065854;28;20101;-63
2022/09/11 04:11:05;;;;;;;19.52;13.73;;;;;;;-145.50;100.00;65435.88;5062563;28;20060;-62
2022/09/11 04:13:37;;;;;;;19.65;14.27;;;;;;;-145.50;100.00;65435.88;5065890;28;20052;-63
2022/09/11 04:16:13;;;;;;;21.10;14.15;;;;;;;-145.50;100.00;65435.88;5062784;28;20052;-63
2022/09/11 04:18:41;;;;;;;21.00;14.60;;;;;;;-145.50;100.00;65435.88;5052953;28;20542;-62
2022/09/11 04:21:09;;;;;;;;;;;;;;;-145.50;100.00;65435.88;5061227;28;20052;-62
2022/09/11 04:23:36;;;;;;;20.25;13.02;;;;;;;-145.50;100.00;65435.88;5058509;28;19924;-62
2022/09/11 04:26:13;;;;;;;22.70;14.87;;;;;;;-145.50;100.00;65435.88;5065080;28;20052;-63
2022/09/11 04:28:39;;;;;;;21.33;14.23;;;;;;;-145.50;100.00;65435.88;5056172;28;20057;-62
2022/09/11 04:31:06;;;;;;;22.75;14.40;;;;;;;-145.50;100.00;65435.88;5063026;28;20423;-62
2022/09/11 04:33:35;;;;;;;20.58;14.60;;;;;;;-145.50;100.00;65435.88;5057211;28;20107;-61
2022/09/11 04:36:06;;;;;;;23.25;14.07;;;;;;;-145.50;100.00;65435.88;5054142;28;20391;-63
2022/09/11 04:38:32;;;;;;;19.98;14.40;;;;;;;-145.50;100.00;65435.88;5064108;28;20048;-62
2022/09/11 04:41:00;;;;;;;18.73;13.02;;;;;;;-145.50;100.00;65435.88;5055749;28;20053;-63
2022/09/11 04:43:28;;;;;;;21.42;13.48;;;;;;;-145.50;100.00;65435.88;5065163;28;20138;-62
2022/09/11 04:46:03;;;;;;;20.38;14.30;;;;;;;-145.50;100.00;65435.88;5054211;28;20110;-61
2022/09/11 04:48:30;;;;;;;22.83;15.15;;;;;;;-145.50;100.00;65435.88;5059608;28;20080;-62
2022/09/11 04:51:01;;;;;;;19.58;13.65;;;;;;;-145.50;100.00;65435.88;5064563;28;20052;-62
2022/09/11 04:53:28;;;;;;;19.85;13.93;;;;;;;-145.50;100.00;65435.88;5064395;28;20051;-62
2022/09/11 04:56:02;;;;;;;19.05;12.48;;;;;;;-145.50;100.00;65435.88;5064421;28;20056;-62
2022/09/11 04:58:29;;;;;;;17.38;13.15;;;;;;;-145.50;100.00;65435.88;5057755;28;20075;-62
2022/09/11 05:00:55;;;;;;;18.42;13.65;;;;;;;-145.50;100.00;65435.88;5060682;28;20052;-62
2022/09/11 05:03:21;;;;;;;21.05;13.93;;;;;;;-145.50;100.00;65435.88;5047748;28;20063;-62
2022/09/11 05:05:48;;;;;;;22.63;14.88;;;;;;;-145.50;100.00;65435.88;5060245;28;20057;-63
2022/09/11 05:08:15;;;;;;;20.92;13.93;;;;;;;-145.50;100.00;65435.88;5055509;28;20101;-63
2022/09/11 05:10:41;;;;;;;18.33;12.85;;;;;;;-145.50;100.00;65435.88;5064068;28;20063;-62
2022/09/11 05:13:08;;;;;;;20.85;14.32;;;;;;;-145.50;100.00;65435.88;5063461;28;20097;-63
2022/09/11 05:15:34;;;;;;;19.40;12.77;;;;;;;-145.50;100.00;65435.88;5050915;28;20078;-62
2022/09/11 05:18:00;;;;;;;19.98;13.80;;;;;;;-145.50;100.00;65435.88;5063403;28;20106;-62
2022/09/11 05:20:27;;;;;;;19.33;13.20;;;;;;;-145.50;100.00;65435.88;5058505;28;20044;-62
2022/09/11 05:22:53;;;;;;;17.92;12.85;;;;;;;-145.50;100.00;65435.88;5062683;28;20086;-62
2022/09/11 05:25:20;;;;;;;17.40;12.68;;;;;;;-145.50;100.00;65435.88;5057796;28;20436;-61
2022/09/11 05:27:46;;;;;;;18.15;12.75;;;;;;;-145.50;100.00;65435.88;5058954;28;20753;-63
2022/09/11 05:30:13;;;;;;;17.85;12.65;;;;;;;-145.50;100.00;65435.88;5058953;28;20045;-63
2022/09/11 05:32:39;;;;;;;19.90;12.85;;;;;;;-145.50;100.00;65435.88;5057934;28;20586;-62
2022/09/11 05:35:06;;;;;;;16.65;12.40;;;;;;;-145.50;100.00;65435.88;5060399;28;20114;-62
2022/09/11 05:37:33;;;;;;;20.10;13.07;;;;;;;-145.50;100.00;65435.88;5057644;28;20048;-62
2022/09/11 05:39:59;;;;;;;18.48;13.10;;;;;;;-145.50;100.00;65435.88;5063611;28;20457;-62
2022/09/11 05:42:27;;;;;;;20.58;13.55;;;;;;;-145.50;100.00;65435.88;5050736;28;20149;-62
2022/09/11 05:44:54;;;;;;;18.80;12.95;;;;;;;-145.50;100.00;65435.88;5059271;28;20098;-61
2022/09/11 05:47:20;;;;;;;19.58;13.23;;;;;;;-145.50;100.00;65435.88;5063854;28;20094;-62
2022/09/11 05:49:46;;;;;;;20.58;12.93;;;;;;;-145.50;100.00;65435.88;5056760;28;20489;-62
2022/09/11 05:52:13;;;;;;;19.17;13.70;;;;;;;-145.50;100.00;65435.88;5063751;28;20052;-61
2022/09/11 05:54:39;;;;;;;20.40;13.77;;;;;;;-145.50;100.00;65435.88;5057155;28;20133;-62
2022/09/11 05:57:06;;;;;;;20.10;12.93;;;;;;;-145.50;100.00;65435.88;5053976;28;20075;-63
2022/09/11 05:59:33;;;;;;;14.05;11.10;;;;;;;-145.50;100.00;65435.88;5054590;28;20144;-63
2022/09/11 06:01:59;;;;;;;13.35;10.93;;;;;;;-145.50;100.00;65435.88;5062074;28;20060;-63
2022/09/11 06:04:26;;;;;;;14.30;11.23;;;;;;;-145.50;100.00;65435.88;5060531;28;20808;-63
2022/09/11 06:06:53;;;;;;;17.60;10.70;;;;;;;-145.50;100.00;65435.88;5056855;28;20079;-63
2022/09/11 06:09:19;;;;;;;14.20;10.90;;;;;;;-145.50;100.00;65435.88;5058573;28;20084;-62
2022/09/11 06:11:46;;;;;;;17.42;10.70;;;;;;;-145.50;100.00;65435.88;5052606;28;20048;-62
2022/09/11 06:14:12;;;;;;;22.38;11.10;;;;;;;-145.50;100.00;65435.88;5061990;28;20041;-63
2022/09/11 06:16:39;;;;;;;12.48;10.38;;;;;;;-145.50;100.00;65435.88;5056274;28;20052;-62
2022/09/11 06:19:06;;;;;;;14.00;10.30;;;;;;;-145.50;100.00;65435.88;5061440;28;20139;-63
2022/09/11 06:21:32;;;;;;;14.60;10.75;;;;;;;-145.50;100.00;65435.88;5062899;28;20048;-62
2022/09/11 06:23:59;;;;;;;15.45;10.63;;;;;;;-145.50;100.00;65435.88;5049930;28;20052;-64
2022/09/11 06:26:26;;;;;;;13.00;10.35;;;;;;;-145.50;100.00;65435.88;5054563;28;20569;-61
2022/09/11 06:28:53;;;;;;;16.20;10.00;;;;;;;-145.50;100.00;65435.88;5054588;28;20064;-62
2022/09/11 06:31:23;;;;;;;12.90;10.10;;;;;;;-145.50;100.00;65435.88;5057458;28;20532;-62
2022/09/11 06:33:50;;;;;;;13.73;10.90;;;;;;;-145.50;100.00;65435.88;5056140;28;20130;-63
2022/09/11 06:36:19;;;;;;;12.15;9.20;;;;;;;-145.50;100.00;65435.88;5056239;28;20470;-63
2022/09/11 06:38:50;;;;;;;13.63;10.75;;;;;;;-145.50;100.00;65435.88;5056129;28;20067;-62
2022/09/11 06:41:17;;;;;;;14.70;10.43;;;;;;;-145.50;100.00;65435.88;5053022;28;20424;-62
2022/09/11 06:43:43;;;;;;;15.95;11.88;;;;;;;-145.50;100.00;65435.88;5060891;28;20443;-62
2022/09/11 06:46:18;;;;;;;16.65;12.65;;;;;;;-145.50;100.00;65435.88;5052538;28;20052;-62
2022/09/11 06:48:47;;;;;;;15.48;11.55;;;;;;;-145.50;100.00;65435.88;5059826;28;20493;-62
2022/09/11 06:51:16;;;;;;;14.05;11.23;;;;;;;-145.50;100.00;65435.88;5049612;28;20536;-62
2022/09/11 06:53:43;;;;;;;13.63;10.65;;;;;;;-145.50;100.00;65435.88;5053604;28;20383;-62
2022/09/11 06:56:12;;;;;;;16.40;12.67;;;;;;;-145.50;100.00;65435.88;5055106;28;20049;-61
2022/09/11 06:58:40;;;;;;;17.83;12.52;;;;;;;-145.50;100.00;65435.88;5051929;28;20048;-62
2022/09/11 07:01:14;;;;;;;16.48;12.25;;;;;;;-145.50;100.00;65435.88;5060198;28;20102;-62
2022/09/11 07:03:45;;;;;;;15.88;11.60;;;;;;;-145.50;100.00;65435.88;5055069;28;20048;-63
2022/09/11 07:06:13;;;;;;;18.55;13.23;;;;;;;-145.50;100.00;65435.88;5057000;28;20056;-62
2022/09/11 07:08:40;;;;;;;21.35;14.07;;;;;;;-145.50;100.00;65435.88;5051222;28;20832;-62
2022/09/11 07:11:07;;;;;;;22.35;13.85;;;;;;;-145.50;100.00;65435.88;5061837;28;20060;-61
2022/09/11 07:13:36;;;;;;;21.23;15.00;;;;;;;-145.50;100.00;65435.88;5061371;28;20101;-61
2022/09/11 07:16:08;;;;;;;21.27;14.98;;;;;;;-145.50;100.00;65435.88;5053064;28;20048;-61
2022/09/11 07:18:40;;;;;;;20.95;14.70;;;;;;;-145.50;100.00;65435.88;5060278;28;20830;-62
2022/09/11 07:21:16;;;;;;;30.25;15.70;;;;;;;-145.50;100.00;65435.88;5055475;28;20052;-61
2022/09/11 07:23:47;;;;;;;27.92;16.95;;;;;;;-145.50;100.00;65435.88;5059589;28;20053;-62
2022/09/11 07:26:13;;;;;;;25.25;17.33;;;;;;;-145.50;100.00;65435.88;5050760;28;20110;-62
2022/09/11 07:28:40;;;;;;;27.55;17.58;;;;;;;-145.50;100.00;65435.88;5050706;28;20064;-63
2022/09/11 07:31:12;;;;;;;28.88;18.10;;;;;;;-145.50;100.00;65435.88;5047611;28;20080;-62
2022/09/11 07:33:46;;;;;;;25.83;18.47;;;;;;;-145.50;100.00;65435.88;5055493;28;20103;-61
2022/09/11 07:36:18;;;;;;;30.98;19.65;;;;;;;-145.50;100.00;65435.88;5061898;28;20310;-62
2022/09/11 07:38:46;;;;;;;28.17;19.02;;;;;;;-145.50;100.00;65435.88;5056341;28;20052;-62
2022/09/11 07:41:14;;;;;;;23.98;16.27;;;;;;;-145.50;100.00;65435.88;5056332;28;20044;-63
2022/09/11 07:43:44;;;;;;;28.17;19.77;;;;;;;-145.50;100.00;65435.88;5052294;28;20102;-62
2022/09/11 07:46:11;;;;;;;27.73;19.52;;;;;;;-145.50;100.00;65435.88;5056660;28;20090;-62
2022/09/11 07:48:38;;;;;;;29.15;20.30;;;;;;;-145.50;100.00;65435.88;5054893;28;20125;-62
2022/09/11 07:51:07;;;;;;;32.05;20.70;;;;;;;-145.50;100.00;65435.88;5061986;28;20076;-62
2022/09/11 07:53:38;;;;;;;27.65;18.33;;;;;;;-145.50;100.00;65435.88;5062047;28;20045;-61
2022/09/11 07:56:10;;;;;;;29.42;20.60;;;;;;;-145.50;100.00;65435.88;5054027;28;20143;-62
2022/09/11 07:58:39;;;;;;;29.15;20.55;;;;;;;-145.50;100.00;65435.88;5055273;28;20118;-62
2022/09/11 08:01:12;;;;;;;;;;;;;;;-145.50;100.00;65435.88;5050404;28;20048;-61
2022/09/11 08:03:39;;;;;;;29.58;19.05;;;;;;;-145.50;100.00;65435.88;5062116;28;19958;-62
2022/09/11 08:06:08;;;;;;;31.27;21.27;;;;;;;-145.50;100.00;65435.88;5055256;28;20118;-62
2022/09/11 08:08:36;;;;;;;26.40;18.02;;;;;;;-145.50;100.00;65435.88;5060716;28;20052;-62
2022/09/11 08:11:05;;;;;;;32.58;21.98;;;;;;;-145.50;100.00;65435.88;5052163;28;20052;-62
2022/09/11 08:13:32;;;;;;;30.27;21.08;;;;;;;-145.50;100.00;65435.88;5054384;28;20052;-63
2022/09/11 08:15:59;;;;;;;28.90;21.10;;;;;;;-145.50;100.00;65435.88;5060922;28;20041;-62
2022/09/11 08:18:26;;;;;;;30.65;21.95;;;;;;;-145.50;100.00;65435.88;5054986;28;20169;-62
2022/09/11 08:20:53;;;;;;;33.22;22.45;;;;;;;-145.50;100.00;65435.88;5061544;28;20097;-62
2022/09/11 08:23:22;;;;;;;32.20;20.95;;;;;;;-145.50;100.00;65435.88;5048340;28;21210;-62
2022/09/11 08:25:49;;;;;;;29.20;20.45;;;;;;;-145.50;100.00;65435.88;5058984;28;20449;-62
2022/09/11 08:28:16;;;;;;;25.83;17.67;;;;;;;-145.50;100.00;65435.88;5053397;28;20048;-62
2022/09/11 08:30:42;;;;;;;27.67;21.42;;;;;;;-145.50;100.00;65435.88;5061225;28;20048;-63
2022/09/11 08:33:11;;;;;;;29.23;20.88;;;;;;;-145.50;100.00;65435.88;5060710;28;20269;-62
2022/09/11 08:35:37;;;;;;;27.42;19.65;;;;;;;-145.50;100.00;65435.88;5052848;28;20471;-62
2022/09/11 08:38:04;;;;;;;28.75;20.85;;;;;;;-145.50;100.00;65435.88;5056376;28;20497;-62
2022/09/11 08:40:36;;;;;;;26.63;20.27;;;;;;;-145.50;100.00;65435.88;5050700;28;20052;-62
2022/09/11 08:43:03;;;;;;;25.95;20.17;;;;;;;-145.50;100.00;65435.88;5055808;28;20117;-62
2022/09/11 08:45:34;;;;;;;31.55;23.25;;;;;;;-145.50;100.00;65435.88;5057074;28;20106;-62
2022/09/11 08:48:01;;;;;;;30.17;22.60;;;;;;;-145.50;100.00;65435.88;5064065;28;20203;-62
2022/09/11 08:50:38;;;;;;;27.40;21.42;;;;;;;-145.50;100.00;65435.88;5063913;28;20048;-63
2022/09/11 08:53:08;;;;;;;27.70;21.58;;;;;;;-145.50;100.00;65435.88;5052993;28;20779;-63
2022/09/11 08:55:53;;;;;;;24.73;20.77;;;;;;;-145.50;100.00;65435.88;5059708;28;20567;-62
2022/09/11 08:58:46;;;;;;;27.13;21.88;;;;;;;-145.50;100.00;65435.88;5051529;28;20868;-61
2022/09/11 09:01:35;;;;;;;28.98;22.98;;;;;;;-145.50;100.00;65435.88;5061616;28;20110;-64
2022/09/11 09:04:45;;;;;;;27.05;21.88;;;;;;;-145.50;100.00;65435.88;5057076;28;20044;-62
2022/09/11 09:07:25;;;;;;;28.58;23.40;;;;;;;-145.50;100.00;65435.88;5057078;28;20057;-63
2022/09/11 09:10:15;;;;;;;26.38;21.52;;;;;;;-145.50;100.00;65435.88;5050649;28;20060;-62
2022/09/11 09:12:59;;;;;;;25.70;21.17;;;;;;;-145.50;100.00;65435.88;5062725;28;20074;-62
2022/09/11 09:15:43;;;;;;;28.88;23.35;;;;;;;-145.50;100.00;65435.88;5057300;28;20044;-62
2022/09/11 09:18:16;;;;;;;27.60;21.63;;;;;;;-145.50;100.00;65435.88;5059470;28;20128;-63
2022/09/11 09:20:49;;;;;;;25.92;20.40;;;;;;;-145.50;100.00;65435.88;5052328;28;20056;-63
2022/09/11 09:23:20;;;;;;;25.20;21.50;;;;;;;-145.50;100.00;65435.88;5054444;28;20219;-62
2022/09/11 09:25:47;;;;;;;24.05;19.73;;;;;;;-145.50;100.00;65435.88;5058278;28;20048;-64
2022/09/11 09:28:20;;;;;;;23.40;19.58;;;;;;;-145.50;100.00;65435.88;5060540;28;20045;-63
2022/09/11 09:30:52;;;;;;;23.83;19.85;;;;;;;-145.50;100.00;65435.88;5057472;28;20084;-63
2022/09/11 09:33:33;;;;;;;23.83;20.17;;;;;;;-145.50;100.00;65435.88;5053383;28;20047;-64
2022/09/11 09:36:19;;;;;;;21.75;19.48;;;;;;;-145.50;100.00;65435.88;5056600;28;20052;-63
2022/09/11 09:38:46;;;;;;;22.20;19.65;;;;;;;-145.50;100.00;65435.88;5054177;28;20060;-63
2022/09/11 09:41:25;;;;;;;21.00;18.80;;;;;;;-145.50;100.00;65435.88;5064041;28;20518;-63
2022/09/11 09:43:55;;;;;;;20.48;18.15;;;;;;;-145.50;100.00;65435.88;5055630;28;20706;-63
2022/09/11 09:46:42;;;;;;;21.67;17.95;;;;;;;-145.50;100.00;65435.88;5059388;28;20462;-63
2022/09/11 09:49:30;;;;;;;20.70;18.17;;;;;;;-145.50;100.00;65435.88;5050455;28;20063;-63
2022/09/11 09:51:59;;;;;;;21.55;18.92;;;;;;;-145.50;100.00;65435.88;5063240;28;20553;-63
2022/09/11 09:54:32;;;;;;;19.60;17.23;;;;;;;-145.50;100.00;65435.88;5049086;28;20057;-63
2022/09/11 09:57:04;;;;;;;16.15;14.45;;;;;;;-145.50;100.00;65435.88;5058548;28;20056;-64
2022/09/11 09:59:41;;;;;;;17.50;15.20;;;;;;;-145.50;100.00;65435.88;5054489;28;20074;-62
2022/09/11 10:02:08;;;;;;;16.07;13.83;;;;;;;-145.50;100.00;65435.88;5053511;28;20045;-63
2022/09/11 10:04:34;;;;;;;15.18;13.40;;;;;;;-145.50;100.00;65435.88;5060265;28;20048;-63
2022/09/11 10:07:09;;;;;;;16.67;14.82;;;;;;;-145.50;100.00;65435.88;5054712;28;20056;-63
2022/09/11 10:09:57;;;;;;;21.25;16.00;;;;;;;-145.50;100.00;65435.88;5063843;28;20508;-64
2022/09/11 10:12:26;;;;;;;;;;;;;;;-145.50;100.00;65435.88;5049700;28;20052;-63
2022/09/11 10:14:57;;;;;;;19.73;14.98;;;;;;;-145.50;100.00;65435.88;5052668;28;19924;-63
2022/09/11 10:17:28;;;;;;;17.65;15.50;;;;;;;-145.50;100.00;65435.88;5051705;28;20102;-62
2022/09/11 10:19:56;;;;;;;20.70;17.13;;;;;;;-145.50;100.00;65435.88;5063854;28;20075;-63
2022/09/11 10:22:29;;;;;;;17.60;15.70;;;;;;;-145.50;100.00;65435.88;5058360;28;20602;-62
2022/09/11 10:25:03;;;;;;;21.27;16.88;;;;;;;-145.50;100.00;65435.88;5064425;28;20463;-63
2022/09/11 10:27:34;;;;;;;22.08;16.95;;;;;;;-145.50;100.00;65435.88;5062098;28;20516;-63
2022/09/11 10:30:02;;;;;;;19.40;17.17;;;;;;;-145.50;100.00;65435.88;5049453;28;20425;-64
2022/09/11 10:32:29;;;;;;;;;;;;;;;-145.50;100.00;65435.88;5064453;28;20480;-63
2022/09/11 10:34:56;;;;;;;19.02;15.07;;;;;;;-145.50;100.00;65435.88;5055538;28;20339;-63
2022/09/11 10:37:28;;;;;;;19.33;17.33;;;;;;;-145.50;100.00;65435.88;5063175;28;20102;-62
2022/09/11 10:40:04;;;;;;;18.52;16.42;;;;;;;-145.50;100.00;65435.88;5057472;28;20649;-64
2022/09/11 10:42:33;;;;;;;27.90;21.60;;;;;;;-145.50;100.00;65435.88;5058985;28;20052;-63
2022/09/11 10:45:11;;;;;;;27.50;20.88;;;;;;;-145.50;100.00;65435.88;5053166;28;20052;-63
2022/09/11 10:47:37;;;;;;;26.00;19.83;;;;;;;-145.50;100.00;65435.88;5062532;28;20040;-63
2022/09/11 10:50:16;;;;;;;27.90;20.73;;;;;;;-145.50;100.00;65435.88;5058795;28;20053;-63
2022/09/11 10:52:57;;;;;;;28.65;20.45;;;;;;;-145.50;100.00;65435.88;5056093;28;20098;-63
2022/09/11 10:55:28;;;;;;;24.38;18.83;;;;;;;-145.50;100.00;65435.88;5057997;28;20048;-64
2022/09/11 10:58:04;;;;;;;23.13;19.30;;;;;;;-145.50;100.00;65435.88;5049551;28;20056;-63
2022/09/11 11:00:31;;;;;;;25.17;19.13;;;;;;;-145.50;100.00;65435.88;5062653;28;20131;-63
2022/09/11 11:03:17;;;;;;;20.95;16.38;;;;;;;-145.50;100.00;65435.88;5056859;28;20049;-64
2022/09/11 11:06:22;;;;;;;24.15;18.42;;;;;;;-145.50;100.00;65435.88;5062423;28;20048;-63
2022/09/11 11:09:07;;;;;;;22.77;17.10;;;;;;;-145.50;100.00;65435.88;5053011;28;20334;-64
2022/09/11 11:12:10;;;;;;;22.60;17.73;;;;;;;-145.50;100.00;65435.88;5054629;28;20075;-63